createdAt,value
2023-04-20T00:01:09.372Z,88.89
2023-04-20T00:03:33.558Z,91.88
2023-04-20T00:06:01.282Z,91.53
2023-04-20T00:08:25.382Z,90.52
2023-04-20T00:10:49.068Z,90.68
2023-04-20T00:13:13.100Z,91.75
2023-04-20T00:15:36.851Z,92.12
2023-04-20T00:18:00.767Z,91.74
2023-04-20T00:20:24.628Z,90.78
2023-04-20T00:22:49.740Z,90.97
2023-04-20T00:25:13.348Z,90.53
2023-04-20T00:27:37.067Z,90.63
2023-04-20T00:30:00.709Z,91.57
2023-04-20T00:32:24.449Z,90.99
2023-04-20T00:34:48.170Z,91.04
2023-04-20T00:37:11.923Z,90.92
2023-04-20T00:39:37.040Z,91.88
2023-04-20T00:42:06.570Z,91.49
2023-04-20T00:44:30.447Z,91.30
2023-04-20T00:46:56.459Z,91.03
2023-04-20T00:49:20.123Z,89.39
2023-04-20T00:51:45.534Z,91.41
2023-04-20T00:54:09.395Z,91.83
2023-04-20T00:56:34.646Z,91.42
2023-04-20T00:59:02.474Z,91.41
2023-04-20T01:01:27.204Z,91.53
2023-04-20T01:03:51.918Z,91.59
2023-04-20T01:06:16.486Z,91.66
2023-04-20T01:08:48.594Z,91.91
2023-04-20T01:11:12.248Z,91.63
2023-04-20T01:13:38.494Z,91.02
2023-04-20T01:16:03.642Z,90.78
2023-04-20T01:18:27.867Z,90.81
2023-04-20T01:20:51.542Z,90.88
2023-04-20T01:23:16.898Z,90.51
2023-04-20T01:25:41.735Z,91.18
2023-04-20T01:28:05.859Z,91.21
2023-04-20T01:30:30.190Z,90.61
2023-04-20T01:32:53.970Z,91.13
2023-04-20T01:35:19.599Z,91.41
2023-04-20T01:37:43.623Z,92.13
2023-04-20T01:40:11.611Z,91.88
2023-04-20T01:42:35.422Z,92.05
2023-04-20T01:44:59.658Z,90.78
2023-04-20T01:47:23.517Z,91.40
2023-04-20T01:49:47.298Z,92.26
2023-04-20T01:52:11.234Z,91.87
2023-04-20T01:54:34.985Z,91.18
2023-04-20T01:56:59.951Z,90.46
2023-04-20T01:59:23.604Z,90.32
2023-04-20T02:01:47.318Z,90.35
2023-04-20T02:04:13.930Z,91.36
2023-04-20T02:06:39.654Z,91.12
2023-04-20T02:09:06.816Z,91.60
2023-04-20T02:11:31.933Z,92.20
2023-04-20T02:13:57.469Z,91.32
2023-04-20T02:16:21.994Z,92.25
2023-04-20T02:18:45.950Z,90.38
2023-04-20T02:21:09.704Z,91.37
2023-04-20T02:23:33.820Z,92.01
2023-04-20T02:25:57.410Z,93.07
2023-04-20T02:28:21.096Z,92.69
2023-04-20T02:30:46.203Z,91.13
2023-04-20T02:33:10.174Z,92.55
2023-04-20T02:35:37.383Z,93.10
2023-04-20T02:38:03.299Z,92.40
2023-04-20T02:40:27.045Z,91.63
2023-04-20T02:42:50.939Z,91.83
2023-04-20T02:45:14.649Z,92.30
2023-04-20T02:47:42.197Z,91.76
2023-04-20T02:50:09.213Z,92.51
2023-04-20T02:52:48.124Z,91.51
2023-04-20T02:55:11.904Z,91.64
2023-04-20T02:57:36.882Z,92.63
2023-04-20T03:00:00.954Z,92.25
2023-04-20T03:02:38.021Z,94.13
2023-04-20T03:05:15.892Z,92.91
2023-04-20T03:07:44.594Z,92.54
2023-04-20T03:10:14.213Z,92.48
2023-04-20T03:12:47.565Z,91.94
2023-04-20T03:15:30.584Z,91.46
2023-04-20T03:18:18.666Z,92.17
2023-04-20T03:20:44.187Z,93.09
2023-04-20T03:23:08.424Z,92.39
2023-04-20T03:25:33.133Z,91.91
2023-04-20T03:28:01.419Z,91.13
2023-04-20T03:30:26.289Z,91.58
2023-04-20T03:32:56.870Z,91.57
2023-04-20T03:35:21.671Z,91.41
2023-04-20T03:37:46.643Z,90.96
2023-04-20T03:40:11.824Z,92.30
2023-04-20T03:42:35.413Z,93.35
2023-04-20T03:44:59.162Z,92.42
2023-04-20T03:47:23.096Z,93.73
2023-04-20T03:49:46.889Z,92.07
2023-04-20T03:52:10.402Z,93.18
2023-04-20T03:54:35.399Z,93.51
2023-04-20T03:56:59.627Z,93.41
2023-04-20T03:59:24.511Z,91.68
2023-04-20T04:01:48.241Z,93.10
2023-04-20T04:04:13.326Z,92.72
2023-04-20T04:06:37.320Z,93.05
2023-04-20T04:09:01.164Z,93.06
2023-04-20T04:11:30.017Z,94.33
2023-04-20T04:13:54.624Z,93.74
2023-04-20T04:16:18.379Z,93.71
2023-04-20T04:18:45.243Z,93.35
2023-04-20T04:21:10.333Z,92.89
2023-04-20T04:23:35.898Z,93.31
2023-04-20T04:26:09.151Z,92.73
2023-04-20T04:28:37.669Z,93.59
2023-04-20T04:31:21.498Z,93.19
2023-04-20T04:33:46.371Z,93.24
2023-04-20T04:36:16.585Z,92.48
2023-04-20T04:38:40.268Z,93.96
2023-04-20T04:41:05.614Z,93.00
2023-04-20T04:43:30.702Z,92.32
2023-04-20T04:46:14.670Z,92.46
2023-04-20T04:48:40.742Z,92.20
2023-04-20T04:51:04.400Z,92.62
2023-04-20T04:53:28.079Z,90.74
2023-04-20T04:55:51.619Z,92.73
2023-04-20T04:58:15.179Z,92.10
2023-04-20T05:00:38.878Z,94.63
2023-04-20T05:03:04.041Z,92.28
2023-04-20T05:05:28.182Z,92.44
2023-04-20T05:07:51.807Z,92.88
2023-04-20T05:10:15.440Z,92.13
2023-04-20T05:12:39.968Z,92.55
2023-04-20T05:15:03.696Z,93.09
2023-04-20T05:17:27.448Z,92.28
2023-04-20T05:19:52.452Z,92.38
2023-04-20T05:22:16.282Z,91.73
2023-04-20T05:24:39.943Z,91.57
2023-04-20T05:27:04.248Z,92.71
2023-04-20T05:29:27.992Z,90.90
2023-04-20T05:31:51.690Z,90.00
2023-04-20T05:34:15.212Z,92.10
2023-04-20T05:36:41.789Z,92.11
2023-04-20T05:39:06.040Z,90.95
2023-04-20T05:41:29.620Z,91.30
2023-04-20T05:43:53.223Z,90.86
2023-04-20T05:46:16.815Z,90.46
2023-04-20T05:48:40.571Z,91.12
2023-04-20T05:51:04.160Z,92.37
2023-04-20T05:53:29.084Z,91.66
2023-04-20T05:55:52.747Z,92.41
2023-04-20T05:58:17.036Z,91.57
2023-04-20T06:00:40.961Z,89.77
2023-04-20T06:03:05.501Z,91.29
2023-04-20T06:05:29.524Z,90.91
2023-04-20T06:07:53.249Z,91.13
2023-04-20T06:10:18.526Z,91.77
2023-04-20T06:12:42.139Z,89.90
2023-04-20T06:15:08.548Z,92.00
2023-04-20T06:17:32.215Z,91.37
2023-04-20T06:19:56.558Z,91.04
2023-04-20T06:22:20.679Z,89.23
2023-04-20T06:24:44.636Z,90.34
2023-04-20T06:27:09.648Z,89.59
2023-04-20T06:29:33.227Z,89.35
2023-04-20T06:31:56.942Z,90.05
2023-04-20T06:34:20.607Z,90.75
2023-04-20T06:36:44.624Z,91.81
2023-04-20T06:39:08.243Z,90.07
2023-04-20T06:41:31.909Z,89.38
2023-04-20T06:44:03.666Z,89.76
2023-04-20T06:46:27.269Z,89.86
2023-04-20T06:48:50.867Z,90.26
2023-04-20T06:51:15.058Z,89.58
2023-04-20T06:53:38.615Z,87.75
2023-04-20T06:56:02.435Z,87.34
2023-04-20T06:58:25.943Z,87.02
2023-04-20T07:00:52.559Z,86.35
2023-04-20T07:03:16.569Z,85.62
2023-04-20T07:05:40.438Z,86.20
2023-04-20T07:08:04.082Z,86.32
2023-04-20T07:10:28.473Z,86.77
2023-04-20T07:12:52.316Z,86.05
2023-04-20T07:15:16.192Z,85.01
2023-04-20T07:17:42.691Z,83.87
2023-04-20T07:20:08.706Z,84.25
2023-04-20T07:22:32.609Z,84.48
2023-04-20T07:24:56.377Z,83.08
2023-04-20T07:27:20.583Z,82.76
2023-04-20T07:29:44.256Z,82.46
2023-04-20T07:32:09.527Z,81.89
2023-04-20T07:34:42.301Z,81.26
2023-04-20T07:37:07.486Z,81.23
2023-04-20T07:39:31.075Z,81.48
2023-04-20T07:41:57.436Z,81.27
2023-04-20T07:44:22.969Z,80.97
2023-04-20T07:46:47.704Z,80.57
2023-04-20T07:49:13.043Z,80.98
2023-04-20T07:51:38.839Z,80.95
2023-04-20T07:54:02.529Z,80.40
2023-04-20T07:56:26.463Z,79.24
2023-04-20T07:58:50.104Z,78.18
2023-04-20T08:01:13.753Z,78.71
2023-04-20T08:03:37.636Z,78.27
2023-04-20T08:06:01.808Z,77.74
2023-04-20T08:08:26.950Z,78.26
2023-04-20T08:10:50.897Z,78.11
2023-04-20T08:13:14.454Z,78.71
2023-04-20T08:15:38.211Z,79.22
2023-04-20T08:18:01.956Z,78.23
2023-04-20T08:20:25.806Z,79.36
2023-04-20T08:22:49.494Z,77.90
2023-04-20T08:25:14.782Z,76.86
2023-04-20T08:27:38.642Z,79.04
2023-04-20T08:30:04.323Z,76.71
2023-04-20T08:32:29.326Z,74.29
2023-04-20T08:34:53.465Z,75.70
2023-04-20T08:37:17.357Z,75.26
2023-04-20T08:39:41.332Z,75.51
2023-04-20T08:42:07.377Z,77.11
2023-04-20T08:44:31.320Z,76.07
2023-04-20T08:46:55.098Z,75.60
2023-04-20T08:49:20.087Z,75.95
2023-04-20T08:51:44.802Z,75.65
2023-04-20T08:54:08.877Z,75.14
2023-04-20T08:56:37.060Z,74.81
2023-04-20T08:59:03.689Z,75.13
2023-04-20T09:01:35.318Z,75.59
2023-04-20T09:04:00.961Z,76.80
2023-04-20T09:06:24.623Z,76.29
2023-04-20T09:08:48.562Z,77.67
2023-04-20T09:11:23.782Z,78.17
2023-04-20T09:13:58.908Z,77.94
2023-04-20T09:16:24.673Z,79.39
2023-04-20T09:18:54.434Z,79.62
2023-04-20T09:21:18.035Z,80.12
2023-04-20T09:23:42.540Z,80.50
2023-04-20T09:26:06.577Z,79.56
2023-04-20T09:28:38.976Z,80.34
2023-04-20T09:31:02.862Z,82.14
2023-04-20T09:33:31.125Z,81.53
2023-04-20T09:35:54.928Z,82.71
2023-04-20T09:38:18.682Z,82.44
2023-04-20T09:40:42.313Z,84.68
2023-04-20T09:43:15.192Z,81.34
2023-04-20T09:45:41.005Z,81.93
2023-04-20T09:48:07.914Z,82.24
2023-04-20T09:50:45.660Z,81.81
2023-04-20T09:53:13.086Z,83.67
2023-04-20T09:55:36.866Z,81.73
2023-04-20T09:58:02.051Z,81.57
2023-04-20T10:00:25.900Z,84.79
2023-04-20T10:02:49.766Z,82.33
2023-04-20T10:05:13.414Z,81.28
2023-04-20T10:07:38.431Z,79.99
2023-04-20T10:10:11.608Z,82.02
2023-04-20T10:12:36.998Z,81.41
2023-04-20T10:15:01.423Z,80.26
2023-04-20T10:17:31.850Z,79.66
2023-04-20T10:19:55.589Z,79.13
2023-04-20T10:22:32.973Z,78.36
2023-04-20T10:24:58.220Z,79.48
2023-04-20T10:27:22.983Z,81.59
2023-04-20T10:29:47.008Z,77.71
2023-04-20T10:32:10.680Z,74.87
2023-04-20T10:34:35.646Z,75.71
2023-04-20T10:37:10.074Z,74.71
2023-04-20T10:39:33.723Z,74.65
2023-04-20T10:41:59.943Z,72.82
2023-04-20T10:44:23.743Z,73.48
2023-04-20T10:46:51.405Z,71.85
2023-04-20T10:49:15.285Z,70.68
2023-04-20T10:51:38.971Z,70.68
2023-04-20T10:54:06.170Z,71.41
2023-04-20T10:56:37.280Z,70.03
2023-04-20T10:59:09.697Z,68.69
2023-04-20T11:01:33.972Z,67.42
2023-04-20T11:03:57.653Z,68.16
2023-04-20T11:06:24.060Z,66.21
2023-04-20T11:08:47.666Z,68.89
2023-04-20T11:11:21.898Z,66.06
2023-04-20T11:13:45.535Z,67.96
2023-04-20T11:16:13.855Z,66.71
2023-04-20T11:18:37.652Z,67.93
2023-04-20T11:21:01.240Z,66.43
2023-04-20T11:23:27.447Z,65.58
2023-04-20T11:25:52.999Z,67.24
2023-04-20T11:28:16.632Z,68.09
2023-04-20T11:30:41.519Z,65.11
2023-04-20T11:33:06.880Z,64.63
2023-04-20T11:35:38.299Z,65.36
2023-04-20T11:38:01.905Z,64.22
2023-04-20T11:40:26.656Z,64.50
2023-04-20T11:42:52.120Z,64.83
2023-04-20T11:45:15.864Z,64.27
2023-04-20T11:47:40.934Z,65.61
2023-04-20T11:50:07.491Z,66.18
2023-04-20T11:52:31.191Z,66.48
2023-04-20T11:54:54.766Z,63.59
2023-04-20T11:57:18.460Z,64.01
2023-04-20T11:59:43.037Z,64.37
2023-04-20T12:02:06.813Z,63.61
2023-04-20T12:04:30.984Z,64.87
2023-04-20T12:06:56.194Z,64.30
2023-04-20T12:09:20.042Z,63.80
2023-04-20T12:11:44.016Z,63.54
2023-04-20T12:14:07.993Z,64.37
2023-04-20T12:16:31.804Z,66.15
2023-04-20T12:18:56.235Z,66.02
2023-04-20T12:21:19.863Z,64.44
2023-04-20T12:23:46.647Z,64.75
2023-04-20T12:26:10.293Z,63.88
2023-04-20T12:28:34.418Z,65.10
2023-04-20T12:30:58.210Z,62.96
2023-04-20T12:33:21.871Z,61.88
2023-04-20T12:35:46.348Z,63.24
2023-04-20T12:38:10.301Z,62.02
2023-04-20T12:40:36.651Z,62.23
2023-04-20T12:43:00.290Z,61.91
2023-04-20T12:45:24.255Z,61.73
2023-04-20T12:47:47.886Z,61.97
2023-04-20T12:50:12.402Z,61.84
2023-04-20T12:52:36.196Z,61.62
2023-04-20T12:55:00.046Z,62.73
2023-04-20T12:57:25.067Z,62.37
2023-04-20T12:59:49.686Z,61.75
2023-04-20T13:02:13.387Z,61.62
2023-04-20T13:04:37.378Z,60.94
2023-04-20T13:07:00.957Z,60.18
2023-04-20T13:09:27.196Z,61.09
2023-04-20T13:11:50.821Z,59.74
2023-04-20T13:14:15.893Z,59.77
2023-04-20T13:16:39.647Z,59.51
2023-04-20T13:19:03.488Z,59.77
2023-04-20T13:21:27.165Z,58.37
2023-04-20T13:23:51.276Z,57.20
2023-04-20T13:26:14.874Z,56.20
2023-04-20T13:28:38.833Z,56.54
2023-04-20T13:31:03.782Z,57.69
2023-04-20T13:33:27.542Z,59.23
2023-04-20T13:35:51.542Z,56.23
2023-04-20T13:38:15.130Z,55.68
2023-04-20T13:40:38.709Z,55.31
2023-04-20T13:43:02.305Z,56.33
2023-04-20T13:45:27.076Z,57.10
2023-04-20T13:47:52.326Z,54.15
2023-04-20T13:50:15.964Z,55.30
2023-04-20T13:52:39.822Z,55.52
2023-04-20T13:55:03.789Z,53.71
2023-04-20T13:57:27.458Z,54.47
2023-04-20T13:59:51.301Z,53.80
2023-04-20T14:02:14.958Z,51.68
2023-04-20T14:04:40.079Z,52.05
2023-04-20T14:07:03.778Z,52.77
2023-04-20T14:09:28.561Z,51.65
2023-04-20T14:11:55.003Z,50.52
2023-04-20T14:14:20.706Z,52.31
2023-04-20T14:16:45.319Z,52.06
2023-04-20T14:19:09.102Z,51.38
2023-04-20T14:21:34.954Z,50.98
2023-04-20T14:23:59.088Z,51.30
2023-04-20T14:26:22.822Z,50.87
2023-04-20T14:28:47.142Z,51.89
2023-04-20T14:31:10.803Z,49.84
2023-04-20T14:33:34.372Z,50.37
2023-04-20T14:35:58.092Z,50.96
2023-04-20T14:38:24.792Z,52.31
2023-04-20T14:40:50.971Z,49.59
2023-04-20T14:43:14.560Z,52.09
2023-04-20T14:45:38.176Z,51.22
2023-04-20T14:48:01.875Z,50.56
2023-04-20T14:50:27.496Z,51.82
2023-04-20T14:52:51.070Z,51.87
2023-04-20T14:55:16.222Z,50.58
2023-04-20T14:57:39.795Z,49.29
2023-04-20T15:00:06.589Z,50.92
2023-04-20T15:02:32.686Z,52.79
2023-04-20T15:04:59.182Z,53.56
2023-04-20T15:07:23.038Z,53.23
2023-04-20T15:09:46.696Z,54.50
2023-04-20T15:12:11.826Z,54.18
2023-04-20T15:14:35.598Z,54.66
2023-04-20T15:17:01.525Z,53.99
2023-04-20T15:19:25.200Z,55.21
2023-04-20T15:21:48.747Z,54.21
2023-04-20T15:24:12.418Z,54.79
2023-04-20T15:26:36.211Z,55.09
2023-04-20T15:29:01.185Z,55.53
2023-04-20T15:31:24.781Z,55.50
2023-04-20T15:33:49.082Z,54.66
2023-04-20T15:36:13.221Z,54.89
2023-04-20T15:38:37.229Z,54.42
2023-04-20T15:41:01.127Z,55.05
2023-04-20T15:43:25.324Z,54.99
2023-04-20T15:45:51.243Z,55.02
2023-04-20T15:48:15.173Z,55.46
2023-04-20T15:50:38.908Z,54.61
2023-04-20T15:53:02.961Z,54.97
2023-04-20T15:55:26.990Z,54.32
2023-04-20T15:57:57.348Z,54.66
2023-04-20T16:00:21.873Z,54.24
2023-04-20T16:02:47.300Z,53.76
2023-04-20T16:05:11.418Z,54.69
2023-04-20T16:07:35.077Z,54.61
2023-04-20T16:09:59.347Z,54.71
2023-04-20T16:12:26.490Z,54.84
2023-04-20T16:14:56.075Z,56.10
2023-04-20T16:17:20.012Z,54.78
2023-04-20T16:19:45.175Z,55.77
2023-04-20T16:22:11.204Z,55.24
2023-04-20T16:24:37.326Z,55.91
2023-04-20T16:27:03.974Z,55.74
2023-04-20T16:29:27.955Z,56.02
2023-04-20T16:31:51.758Z,55.93
2023-04-20T16:34:16.071Z,56.14
2023-04-20T16:36:43.198Z,56.49
2023-04-20T16:39:06.982Z,56.96
2023-04-20T16:41:30.492Z,56.91
2023-04-20T16:43:54.060Z,56.77
2023-04-20T16:46:19.150Z,56.88
2023-04-20T16:48:43.077Z,56.51
2023-04-20T16:51:06.931Z,56.35
2023-04-20T16:53:32.077Z,55.57
2023-04-20T16:55:55.596Z,55.22
2023-04-20T16:58:19.393Z,54.93
2023-04-20T17:00:48.135Z,55.08
2023-04-20T17:03:13.785Z,55.35
2023-04-20T17:05:43.544Z,55.96
2023-04-20T17:08:12.387Z,55.50
2023-04-20T17:10:38.567Z,55.58
2023-04-20T17:13:02.658Z,56.07
2023-04-20T17:15:26.860Z,56.31
2023-04-20T17:17:50.561Z,55.57
2023-04-20T17:20:14.574Z,55.93
2023-04-20T17:22:38.251Z,56.31
2023-04-20T17:25:03.234Z,55.82
2023-04-20T17:27:28.271Z,56.31
2023-04-20T17:29:52.087Z,56.44
2023-04-20T17:32:15.896Z,56.31
2023-04-20T17:34:40.023Z,56.17
2023-04-20T17:37:03.874Z,56.71
2023-04-20T17:39:27.602Z,57.57
2023-04-20T17:41:51.744Z,57.07
2023-04-20T17:44:22.717Z,57.93
2023-04-20T17:46:47.942Z,57.57
2023-04-20T17:49:11.874Z,57.47
2023-04-20T17:51:35.849Z,58.79
2023-04-20T17:53:59.754Z,59.71
2023-04-20T17:56:24.028Z,58.63
2023-04-20T17:58:48.340Z,59.34
2023-04-20T18:01:14.171Z,58.81
2023-04-20T18:03:38.014Z,59.12
2023-04-20T18:06:02.612Z,59.51
2023-04-20T18:08:26.164Z,59.32
2023-04-20T18:10:49.880Z,59.62
2023-04-20T18:13:13.488Z,59.86
2023-04-20T18:15:37.164Z,59.25
2023-04-20T18:18:07.995Z,60.18
2023-04-20T18:20:32.632Z,60.73
2023-04-20T18:23:08.021Z,61.39
2023-04-20T18:25:37.867Z,61.06
2023-04-20T18:28:09.378Z,60.92
2023-04-20T18:30:32.949Z,61.64
2023-04-20T18:32:56.625Z,61.29
2023-04-20T18:35:21.621Z,62.01
2023-04-20T18:37:45.156Z,61.20
2023-04-20T18:40:15.503Z,62.07
2023-04-20T18:42:42.096Z,63.43
2023-04-20T18:45:07.706Z,62.26
2023-04-20T18:47:32.049Z,62.97
2023-04-20T18:49:56.059Z,63.06
2023-04-20T18:52:21.941Z,63.43
2023-04-20T18:54:46.924Z,63.77
2023-04-20T18:57:10.601Z,64.37
2023-04-20T18:59:34.580Z,64.29
2023-04-20T19:01:58.801Z,64.78
2023-04-20T19:04:22.850Z,64.86
2023-04-20T19:06:47.119Z,64.98
2023-04-20T19:09:14.376Z,64.92
2023-04-20T19:11:40.124Z,65.51
2023-04-20T19:14:07.574Z,66.00
2023-04-20T19:16:32.634Z,66.30
2023-04-20T19:18:56.982Z,66.36
2023-04-20T19:21:25.138Z,65.62
2023-04-20T19:23:49.482Z,65.78
2023-04-20T19:26:14.572Z,65.99
2023-04-20T19:28:38.113Z,66.18
2023-04-20T19:31:02.031Z,66.25
2023-04-20T19:33:25.704Z,66.63
2023-04-20T19:35:50.983Z,66.51
2023-04-20T19:38:14.800Z,67.17
2023-04-20T19:40:38.627Z,67.13
2023-04-20T19:43:04.062Z,67.01
2023-04-20T19:45:28.309Z,67.81
2023-04-20T19:47:52.384Z,67.90
2023-04-20T19:50:16.456Z,67.36
2023-04-20T19:52:41.483Z,67.81
2023-04-20T19:55:07.405Z,68.54
2023-04-20T19:57:31.396Z,68.07
2023-04-20T19:59:56.467Z,68.82
2023-04-20T20:02:20.714Z,68.79
2023-04-20T20:04:44.907Z,69.84
2023-04-20T20:07:08.872Z,69.37
2023-04-20T20:09:32.602Z,70.44
2023-04-20T20:11:56.332Z,69.74
2023-04-20T20:14:20.999Z,70.39
2023-04-20T20:16:47.078Z,71.38
2023-04-20T20:19:11.663Z,71.17
2023-04-20T20:21:35.514Z,71.76
2023-04-20T20:23:59.344Z,71.64
2023-04-20T20:26:23.916Z,71.42
2023-04-20T20:28:47.844Z,72.28
2023-04-20T20:31:11.660Z,71.99
2023-04-20T20:33:37.758Z,72.37
2023-04-20T20:36:02.910Z,72.46
2023-04-20T20:38:26.460Z,72.79
2023-04-20T20:40:53.471Z,73.00
2023-04-20T20:43:19.414Z,73.24
2023-04-20T20:45:43.302Z,72.85
2023-04-20T20:48:07.509Z,73.92
2023-04-20T20:50:32.848Z,73.65
2023-04-20T20:52:56.459Z,75.28
2023-04-20T20:55:20.036Z,75.48
2023-04-20T20:57:43.771Z,74.54
2023-04-20T21:00:14.133Z,75.95
2023-04-20T21:02:38.915Z,75.42
2023-04-20T21:05:03.055Z,75.37
2023-04-20T21:07:28.623Z,74.91
2023-04-20T21:09:52.639Z,75.85
2023-04-20T21:12:17.015Z,75.29
2023-04-20T21:14:41.396Z,75.25
2023-04-20T21:17:05.604Z,78.50
2023-04-20T21:19:29.735Z,77.81
2023-04-20T21:21:53.615Z,77.78
2023-04-20T21:24:19.516Z,77.21
2023-04-20T21:26:43.408Z,78.23
2023-04-20T21:29:07.976Z,78.51
2023-04-20T21:31:32.959Z,78.10
2023-04-20T21:33:57.240Z,77.66
2023-04-20T21:36:21.542Z,78.17
2023-04-20T21:38:45.662Z,77.62
2023-04-20T21:41:10.913Z,77.06
2023-04-20T21:43:34.566Z,77.53
2023-04-20T21:45:59.117Z,77.72
2023-04-20T21:48:22.919Z,77.96
2023-04-20T21:50:47.068Z,77.83
2023-04-20T21:53:10.654Z,77.00
2023-04-20T21:55:34.444Z,77.03
2023-04-20T21:57:59.886Z,78.14
2023-04-20T22:00:23.746Z,76.67
2023-04-20T22:02:49.290Z,77.13
2023-04-20T22:05:14.385Z,76.87
2023-04-20T22:07:38.311Z,76.76
2023-04-20T22:10:02.290Z,76.83
2023-04-20T22:12:38.185Z,76.38
2023-04-20T22:15:04.768Z,76.53
2023-04-20T22:17:29.831Z,76.98
2023-04-20T22:19:53.496Z,77.04
2023-04-20T22:22:17.629Z,76.66
2023-04-20T22:24:41.295Z,77.09
2023-04-20T22:27:05.942Z,76.64
2023-04-20T22:29:30.078Z,76.70
2023-04-20T22:31:55.061Z,77.90
2023-04-20T22:34:18.708Z,76.56
2023-04-20T22:36:42.402Z,76.23
2023-04-20T22:39:06.200Z,76.22
2023-04-20T22:41:29.913Z,76.97
2023-04-20T22:43:53.621Z,76.25
2023-04-20T22:46:17.176Z,76.50
2023-04-20T22:48:42.287Z,76.07
2023-04-20T22:51:06.629Z,75.72
2023-04-20T22:53:30.644Z,74.84
2023-04-20T22:55:54.176Z,77.08
2023-04-20T22:58:17.778Z,75.51
2023-04-20T23:00:41.380Z,76.18
2023-04-20T23:03:05.225Z,77.21
2023-04-20T23:05:30.405Z,75.91
2023-04-20T23:07:55.100Z,76.29
2023-04-20T23:10:18.985Z,76.88
2023-04-20T23:12:42.876Z,77.24
2023-04-20T23:15:07.473Z,76.26
2023-04-20T23:17:32.389Z,77.03
2023-04-20T23:19:56.577Z,76.75
2023-04-20T23:22:21.633Z,76.02
2023-04-20T23:24:45.152Z,76.60
2023-04-20T23:27:08.774Z,76.42
2023-04-20T23:29:33.135Z,76.63
2023-04-20T23:31:56.834Z,76.58
2023-04-20T23:34:20.577Z,76.23
2023-04-20T23:36:44.321Z,76.95
2023-04-20T23:39:09.426Z,78.21
2023-04-20T23:41:33.148Z,77.33
2023-04-20T23:43:56.788Z,78.17
2023-04-20T23:46:20.707Z,79.17
2023-04-20T23:48:44.736Z,77.10
2023-04-20T23:51:08.297Z,77.78
2023-04-20T23:53:31.879Z,78.22
2023-04-20T23:55:56.887Z,79.64
2023-04-20T23:58:20.424Z,80.64
